Terminal Aerodrome Forecast
Issued by NWS Blacksburg, VA

Current Version | Previous Version | Text Only | Print | Product List | Glossary Off
Versions: 1 2 3 4 5 6 7 8 9 10 11 12 13 14 15 16 17 18 19 20 21 22

000
FTUS41 KRNK 292331
TAFBLF
TAF
KBLF 292331Z 3000/3024 30005KT P6SM FEW150 BKN250
      TEMPO 3000/3002 30008G15KT
     FM300600 VRB04KT P6SM OVC060
     FM301500 17006KT P6SM VCSH SCT025 BKN060
     FM302000 19009KT P6SM -SHRA BKN025=

USA.gov is the U.S. government's official web portal to all federal, state and local government web resources and services.